sensor_id;sensor_type;location;lat;lon;timestamp;P1;durP1;ratioP1;P2;durP2;ratioP2
13764;SDS011;6953;48.810;9.204;2023-07-31T00:00:43;0.70;;;0.70;;
13764;SDS011;6953;48.810;9.204;2023-07-31T00:03:09;0.80;;;0.80;;
13764;SDS011;6953;48.810;9.204;2023-07-31T00:05:35;0.70;;;0.70;;
13764;SDS011;6953;48.810;9.204;2023-07-31T00:08:00;0.75;;;0.75;;
13764;SDS011;6953;48.810;9.204;2023-07-31T00:10:26;0.70;;;0.70;;
13764;SDS011;6953;48.810;9.204;2023-07-31T00:12:51;0.70;;;0.70;;
13764;SDS011;6953;48.810;9.204;2023-07-31T00:15:16;0.80;;;0.80;;
13764;SDS011;6953;48.810;9.204;2023-07-31T00:17:41;0.80;;;0.80;;
13764;SDS011;6953;48.810;9.204;2023-07-31T00:20:07;0.70;;;0.70;;
13764;SDS011;6953;48.810;9.204;2023-07-31T00:22:32;0.73;;;0.73;;
13764;SDS011;6953;48.810;9.204;2023-07-31T00:24:58;0.90;;;0.90;;
13764;SDS011;6953;48.810;9.204;2023-07-31T00:27:24;0.65;;;0.65;;
13764;SDS011;6953;48.810;9.204;2023-07-31T00:29:50;0.73;;;0.73;;
13764;SDS011;6953;48.810;9.204;2023-07-31T00:32:15;0.60;;;0.60;;
13764;SDS011;6953;48.810;9.204;2023-07-31T00:34:40;0.70;;;0.70;;
13764;SDS011;6953;48.810;9.204;2023-07-31T00:37:05;0.63;;;0.63;;
13764;SDS011;6953;48.810;9.204;2023-07-31T00:39:33;0.55;;;0.55;;
13764;SDS011;6953;48.810;9.204;2023-07-31T00:41:59;0.70;;;0.70;;
13764;SDS011;6953;48.810;9.204;2023-07-31T00:44:24;0.70;;;0.70;;
13764;SDS011;6953;48.810;9.204;2023-07-31T00:46:49;0.70;;;0.70;;
13764;SDS011;6953;48.810;9.204;2023-07-31T00:49:15;0.60;;;0.60;;
13764;SDS011;6953;48.810;9.204;2023-07-31T00:51:41;0.77;;;0.77;;
13764;SDS011;6953;48.810;9.204;2023-07-31T00:54:06;0.70;;;0.70;;
13764;SDS011;6953;48.810;9.204;2023-07-31T00:56:31;0.70;;;0.70;;
13764;SDS011;6953;48.810;9.204;2023-07-31T00:58:57;0.60;;;0.60;;
13764;SDS011;6953;48.810;9.204;2023-07-31T01:01:22;0.70;;;0.70;;
13764;SDS011;6953;48.810;9.204;2023-07-31T01:03:48;0.60;;;0.60;;
13764;SDS011;6953;48.810;9.204;2023-07-31T01:06:20;0.60;;;0.60;;
13764;SDS011;6953;48.810;9.204;2023-07-31T01:09:11;0.70;;;0.70;;
13764;SDS011;6953;48.810;9.204;2023-07-31T01:11:51;0.70;;;0.70;;
13764;SDS011;6953;48.810;9.204;2023-07-31T01:14:18;0.70;;;0.70;;
13764;SDS011;6953;48.810;9.204;2023-07-31T01:16:44;0.57;;;0.57;;
13764;SDS011;6953;48.810;9.204;2023-07-31T01:19:09;0.60;;;0.60;;
13764;SDS011;6953;48.810;9.204;2023-07-31T01:24:07;0.50;;;0.50;;
13764;SDS011;6953;48.810;9.204;2023-07-31T01:26:55;0.60;;;0.60;;
13764;SDS011;6953;48.810;9.204;2023-07-31T01:29:25;0.70;;;0.70;;
13764;SDS011;6953;48.810;9.204;2023-07-31T01:31:57;0.70;;;0.70;;
13764;SDS011;6953;48.810;9.204;2023-07-31T01:34:26;0.70;;;0.70;;
13764;SDS011;6953;48.810;9.204;2023-07-31T01:36:53;0.70;;;0.70;;
13764;SDS011;6953;48.810;9.204;2023-07-31T01:39:20;0.65;;;0.65;;
13764;SDS011;6953;48.810;9.204;2023-07-31T01:41:46;0.60;;;0.60;;
13764;SDS011;6953;48.810;9.204;2023-07-31T01:44:11;0.60;;;0.60;;
13764;SDS011;6953;48.810;9.204;2023-07-31T01:46:36;0.73;;;0.73;;
13764;SDS011;6953;48.810;9.204;2023-07-31T01:49:02;0.60;;;0.60;;
13764;SDS011;6953;48.810;9.204;2023-07-31T01:51:27;0.60;;;0.60;;
13764;SDS011;6953;48.810;9.204;2023-07-31T01:53:52;0.60;;;0.60;;
13764;SDS011;6953;48.810;9.204;2023-07-31T01:56:17;0.63;;;0.63;;
13764;SDS011;6953;48.810;9.204;2023-07-31T01:58:43;0.60;;;0.60;;
13764;SDS011;6953;48.810;9.204;2023-07-31T02:01:08;0.60;;;0.60;;
13764;SDS011;6953;48.810;9.204;2023-07-31T02:03:33;0.60;;;0.60;;
13764;SDS011;6953;48.810;9.204;2023-07-31T02:05:59;0.60;;;0.60;;
13764;SDS011;6953;48.810;9.204;2023-07-31T02:08:25;0.70;;;0.70;;
13764;SDS011;6953;48.810;9.204;2023-07-31T02:10:51;0.70;;;0.70;;
13764;SDS011;6953;48.810;9.204;2023-07-31T02:13:17;0.50;;;0.50;;
13764;SDS011;6953;48.810;9.204;2023-07-31T02:15:42;0.60;;;0.60;;
13764;SDS011;6953;48.810;9.204;2023-07-31T02:18:08;0.70;;;0.70;;
13764;SDS011;6953;48.810;9.204;2023-07-31T02:20:34;0.70;;;0.70;;
13764;SDS011;6953;48.810;9.204;2023-07-31T02:23:00;0.63;;;0.63;;
13764;SDS011;6953;48.810;9.204;2023-07-31T02:25:25;0.50;;;0.50;;
13764;SDS011;6953;48.810;9.204;2023-07-31T02:27:51;0.60;;;0.60;;
13764;SDS011;6953;48.810;9.204;2023-07-31T02:30:16;0.57;;;0.57;;
13764;SDS011;6953;48.810;9.204;2023-07-31T02:32:41;0.60;;;0.60;;
13764;SDS011;6953;48.810;9.204;2023-07-31T02:35:07;0.60;;;0.60;;
13764;SDS011;6953;48.810;9.204;2023-07-31T02:37:33;0.50;;;0.50;;
13764;SDS011;6953;48.810;9.204;2023-07-31T02:40:00;0.70;;;0.70;;
13764;SDS011;6953;48.810;9.204;2023-07-31T02:42:26;0.50;;;0.50;;
13764;SDS011;6953;48.810;9.204;2023-07-31T02:44:51;0.50;;;0.50;;
13764;SDS011;6953;48.810;9.204;2023-07-31T02:47:20;0.52;;;0.52;;
13764;SDS011;6953;48.810;9.204;2023-07-31T02:49:46;0.60;;;0.60;;
13764;SDS011;6953;48.810;9.204;2023-07-31T02:52:11;0.60;;;0.60;;
13764;SDS011;6953;48.810;9.204;2023-07-31T02:54:37;0.70;;;0.70;;
13764;SDS011;6953;48.810;9.204;2023-07-31T02:57:02;0.70;;;0.70;;
13764;SDS011;6953;48.810;9.204;2023-07-31T02:59:28;0.60;;;0.60;;
13764;SDS011;6953;48.810;9.204;2023-07-31T03:01:54;0.55;;;0.55;;
13764;SDS011;6953;48.810;9.204;2023-07-31T03:04:19;0.50;;;0.50;;
13764;SDS011;6953;48.810;9.204;2023-07-31T03:06:44;0.60;;;0.60;;
13764;SDS011;6953;48.810;9.204;2023-07-31T03:09:10;0.60;;;0.60;;
13764;SDS011;6953;48.810;9.204;2023-07-31T03:11:35;0.60;;;0.60;;
13764;SDS011;6953;48.810;9.204;2023-07-31T03:14:00;0.60;;;0.60;;
13764;SDS011;6953;48.810;9.204;2023-07-31T03:16:25;0.60;;;0.60;;
13764;SDS011;6953;48.810;9.204;2023-07-31T03:18:51;0.65;;;0.65;;
13764;SDS011;6953;48.810;9.204;2023-07-31T03:21:16;0.68;;;0.68;;
13764;SDS011;6953;48.810;9.204;2023-07-31T03:23:41;0.70;;;0.70;;
13764;SDS011;6953;48.810;9.204;2023-07-31T03:26:08;0.60;;;0.60;;
13764;SDS011;6953;48.810;9.204;2023-07-31T03:28:33;0.70;;;0.70;;
13764;SDS011;6953;48.810;9.204;2023-07-31T03:30:59;0.70;;;0.70;;
13764;SDS011;6953;48.810;9.204;2023-07-31T03:33:25;0.60;;;0.60;;
13764;SDS011;6953;48.810;9.204;2023-07-31T03:35:50;0.70;;;0.70;;
13764;SDS011;6953;48.810;9.204;2023-07-31T03:38:16;0.70;;;0.70;;
13764;SDS011;6953;48.810;9.204;2023-07-31T03:40:41;0.63;;;0.63;;
13764;SDS011;6953;48.810;9.204;2023-07-31T03:43:07;0.60;;;0.60;;
13764;SDS011;6953;48.810;9.204;2023-07-31T03:45:32;0.60;;;0.60;;
13764;SDS011;6953;48.810;9.204;2023-07-31T03:47:57;0.70;;;0.70;;
13764;SDS011;6953;48.810;9.204;2023-07-31T03:50:22;0.50;;;0.50;;
13764;SDS011;6953;48.810;9.204;2023-07-31T03:52:50;0.60;;;0.60;;
13764;SDS011;6953;48.810;9.204;2023-07-31T03:55:15;0.70;;;0.70;;
13764;SDS011;6953;48.810;9.204;2023-07-31T03:57:40;0.70;;;0.70;;
13764;SDS011;6953;48.810;9.204;2023-07-31T04:00:06;0.60;;;0.60;;
13764;SDS011;6953;48.810;9.204;2023-07-31T04:02:31;0.70;;;0.70;;
13764;SDS011;6953;48.810;9.204;2023-07-31T04:04:57;0.50;;;0.50;;
13764;SDS011;6953;48.810;9.204;2023-07-31T04:07:22;0.60;;;0.60;;
13764;SDS011;6953;48.810;9.204;2023-07-31T04:09:47;0.70;;;0.70;;
13764;SDS011;6953;48.810;9.204;2023-07-31T04:12:13;0.50;;;0.50;;
13764;SDS011;6953;48.810;9.204;2023-07-31T04:14:38;0.70;;;0.70;;
13764;SDS011;6953;48.810;9.204;2023-07-31T04:17:03;0.60;;;0.60;;
13764;SDS011;6953;48.810;9.204;2023-07-31T04:19:29;0.70;;;0.70;;
13764;SDS011;6953;48.810;9.204;2023-07-31T04:21:54;0.60;;;0.60;;
13764;SDS011;6953;48.810;9.204;2023-07-31T04:24:19;0.60;;;0.60;;
13764;SDS011;6953;48.810;9.204;2023-07-31T04:26:49;0.50;;;0.50;;
13764;SDS011;6953;48.810;9.204;2023-07-31T04:29:15;0.40;;;0.40;;
13764;SDS011;6953;48.810;9.204;2023-07-31T04:31:41;0.50;;;0.50;;
13764;SDS011;6953;48.810;9.204;2023-07-31T04:34:06;0.70;;;0.70;;
13764;SDS011;6953;48.810;9.204;2023-07-31T04:36:32;0.50;;;0.50;;
13764;SDS011;6953;48.810;9.204;2023-07-31T04:38:58;0.60;;;0.60;;
13764;SDS011;6953;48.810;9.204;2023-07-31T04:41:23;0.50;;;0.50;;
13764;SDS011;6953;48.810;9.204;2023-07-31T04:43:49;0.45;;;0.45;;
13764;SDS011;6953;48.810;9.204;2023-07-31T04:46:14;0.50;;;0.50;;
13764;SDS011;6953;48.810;9.204;2023-07-31T04:48:40;0.50;;;0.50;;
13764;SDS011;6953;48.810;9.204;2023-07-31T04:51:05;0.50;;;0.50;;
13764;SDS011;6953;48.810;9.204;2023-07-31T04:53:30;0.50;;;0.50;;
13764;SDS011;6953;48.810;9.204;2023-07-31T04:55:55;0.50;;;0.50;;
13764;SDS011;6953;48.810;9.204;2023-07-31T04:58:21;0.50;;;0.50;;
13764;SDS011;6953;48.810;9.204;2023-07-31T05:00:46;0.40;;;0.40;;
13764;SDS011;6953;48.810;9.204;2023-07-31T05:03:11;0.50;;;0.50;;
13764;SDS011;6953;48.810;9.204;2023-07-31T05:05:37;0.60;;;0.60;;
13764;SDS011;6953;48.810;9.204;2023-07-31T05:08:02;0.60;;;0.60;;
13764;SDS011;6953;48.810;9.204;2023-07-31T05:10:28;0.50;;;0.50;;
13764;SDS011;6953;48.810;9.204;2023-07-31T05:12:53;0.50;;;0.50;;
13764;SDS011;6953;48.810;9.204;2023-07-31T05:15:18;0.60;;;0.60;;
13764;SDS011;6953;48.810;9.204;2023-07-31T05:17:43;0.50;;;0.50;;
13764;SDS011;6953;48.810;9.204;2023-07-31T05:20:09;0.50;;;0.50;;
13764;SDS011;6953;48.810;9.204;2023-07-31T05:22:34;0.50;;;0.50;;
13764;SDS011;6953;48.810;9.204;2023-07-31T05:25:00;0.50;;;0.50;;
13764;SDS011;6953;48.810;9.204;2023-07-31T05:27:25;0.50;;;0.50;;
13764;SDS011;6953;48.810;9.204;2023-07-31T05:29:50;0.43;;;0.43;;
13764;SDS011;6953;48.810;9.204;2023-07-31T05:32:15;0.50;;;0.50;;
13764;SDS011;6953;48.810;9.204;2023-07-31T05:34:41;0.60;;;0.60;;
13764;SDS011;6953;48.810;9.204;2023-07-31T05:37:07;0.60;;;0.60;;
13764;SDS011;6953;48.810;9.204;2023-07-31T05:39:32;0.50;;;0.50;;
13764;SDS011;6953;48.810;9.204;2023-07-31T05:41:57;0.50;;;0.50;;
13764;SDS011;6953;48.810;9.204;2023-07-31T05:44:23;0.50;;;0.50;;
13764;SDS011;6953;48.810;9.204;2023-07-31T05:46:48;0.40;;;0.40;;
13764;SDS011;6953;48.810;9.204;2023-07-31T05:49:13;0.50;;;0.50;;
13764;SDS011;6953;48.810;9.204;2023-07-31T05:51:39;0.40;;;0.40;;
13764;SDS011;6953;48.810;9.204;2023-07-31T05:54:04;0.50;;;0.50;;
13764;SDS011;6953;48.810;9.204;2023-07-31T05:56:29;0.40;;;0.40;;
13764;SDS011;6953;48.810;9.204;2023-07-31T05:58:54;0.47;;;0.47;;
13764;SDS011;6953;48.810;9.204;2023-07-31T06:01:20;0.43;;;0.43;;
13764;SDS011;6953;48.810;9.204;2023-07-31T06:03:46;0.50;;;0.50;;
13764;SDS011;6953;48.810;9.204;2023-07-31T06:06:11;0.40;;;0.40;;
13764;SDS011;6953;48.810;9.204;2023-07-31T06:08:38;0.40;;;0.40;;
13764;SDS011;6953;48.810;9.204;2023-07-31T06:11:04;0.60;;;0.60;;
13764;SDS011;6953;48.810;9.204;2023-07-31T06:13:30;0.50;;;0.50;;
13764;SDS011;6953;48.810;9.204;2023-07-31T06:15:56;0.50;;;0.50;;
13764;SDS011;6953;48.810;9.204;2023-07-31T06:18:21;0.50;;;0.50;;
13764;SDS011;6953;48.810;9.204;2023-07-31T06:20:46;0.40;;;0.40;;
13764;SDS011;6953;48.810;9.204;2023-07-31T06:23:12;0.30;;;0.30;;
13764;SDS011;6953;48.810;9.204;2023-07-31T06:25:38;0.30;;;0.30;;
13764;SDS011;6953;48.810;9.204;2023-07-31T06:28:03;0.20;;;0.20;;
13764;SDS011;6953;48.810;9.204;2023-07-31T06:30:28;0.30;;;0.30;;
13764;SDS011;6953;48.810;9.204;2023-07-31T06:32:54;0.30;;;0.30;;
13764;SDS011;6953;48.810;9.204;2023-07-31T06:35:19;0.30;;;0.30;;
13764;SDS011;6953;48.810;9.204;2023-07-31T06:37:45;0.20;;;0.20;;
13764;SDS011;6953;48.810;9.204;2023-07-31T06:40:10;0.30;;;0.30;;
13764;SDS011;6953;48.810;9.204;2023-07-31T06:42:36;0.20;;;0.20;;
13764;SDS011;6953;48.810;9.204;2023-07-31T06:45:02;0.20;;;0.20;;
13764;SDS011;6953;48.810;9.204;2023-07-31T06:47:27;0.25;;;0.25;;
13764;SDS011;6953;48.810;9.204;2023-07-31T06:49:52;0.30;;;0.30;;
13764;SDS011;6953;48.810;9.204;2023-07-31T06:52:18;0.30;;;0.30;;
13764;SDS011;6953;48.810;9.204;2023-07-31T06:54:44;0.30;;;0.30;;
13764;SDS011;6953;48.810;9.204;2023-07-31T06:57:09;0.20;;;0.20;;
13764;SDS011;6953;48.810;9.204;2023-07-31T06:59:34;0.22;;;0.22;;
13764;SDS011;6953;48.810;9.204;2023-07-31T07:02:00;0.20;;;0.20;;
13764;SDS011;6953;48.810;9.204;2023-07-31T07:04:25;0.20;;;0.20;;
13764;SDS011;6953;48.810;9.204;2023-07-31T07:06:51;0.20;;;0.20;;
13764;SDS011;6953;48.810;9.204;2023-07-31T07:09:17;0.30;;;0.30;;
13764;SDS011;6953;48.810;9.204;2023-07-31T07:11:43;0.30;;;0.30;;
13764;SDS011;6953;48.810;9.204;2023-07-31T07:14:08;0.13;;;0.13;;
13764;SDS011;6953;48.810;9.204;2023-07-31T07:16:33;0.20;;;0.20;;
13764;SDS011;6953;48.810;9.204;2023-07-31T07:18:58;0.20;;;0.20;;
13764;SDS011;6953;48.810;9.204;2023-07-31T07:21:24;0.28;;;0.28;;
13764;SDS011;6953;48.810;9.204;2023-07-31T07:23:49;0.20;;;0.20;;
13764;SDS011;6953;48.810;9.204;2023-07-31T07:26:14;0.20;;;0.20;;
13764;SDS011;6953;48.810;9.204;2023-07-31T07:28:41;0.20;;;0.20;;
13764;SDS011;6953;48.810;9.204;2023-07-31T07:31:06;0.20;;;0.20;;
13764;SDS011;6953;48.810;9.204;2023-07-31T07:33:32;0.20;;;0.20;;
13764;SDS011;6953;48.810;9.204;2023-07-31T07:36:00;0.10;;;0.10;;
13764;SDS011;6953;48.810;9.204;2023-07-31T07:38:27;0.20;;;0.20;;
13764;SDS011;6953;48.810;9.204;2023-07-31T07:40:52;0.20;;;0.20;;
13764;SDS011;6953;48.810;9.204;2023-07-31T07:43:18;0.20;;;0.20;;
13764;SDS011;6953;48.810;9.204;2023-07-31T07:45:44;0.20;;;0.20;;
13764;SDS011;6953;48.810;9.204;2023-07-31T07:48:09;0.30;;;0.30;;
13764;SDS011;6953;48.810;9.204;2023-07-31T07:50:34;0.20;;;0.20;;
13764;SDS011;6953;48.810;9.204;2023-07-31T07:53:03;0.20;;;0.20;;
13764;SDS011;6953;48.810;9.204;2023-07-31T07:55:28;0.20;;;0.20;;
13764;SDS011;6953;48.810;9.204;2023-07-31T07:57:54;0.30;;;0.30;;
13764;SDS011;6953;48.810;9.204;2023-07-31T08:00:19;0.20;;;0.20;;
13764;SDS011;6953;48.810;9.204;2023-07-31T08:02:44;0.20;;;0.20;;
13764;SDS011;6953;48.810;9.204;2023-07-31T08:05:10;0.20;;;0.20;;
13764;SDS011;6953;48.810;9.204;2023-07-31T08:07:35;0.20;;;0.20;;
13764;SDS011;6953;48.810;9.204;2023-07-31T08:10:00;0.20;;;0.20;;
13764;SDS011;6953;48.810;9.204;2023-07-31T08:12:25;0.20;;;0.20;;
13764;SDS011;6953;48.810;9.204;2023-07-31T08:14:51;0.20;;;0.20;;
13764;SDS011;6953;48.810;9.204;2023-07-31T08:17:17;0.20;;;0.20;;
13764;SDS011;6953;48.810;9.204;2023-07-31T08:19:42;0.13;;;0.13;;
13764;SDS011;6953;48.810;9.204;2023-07-31T08:22:09;0.10;;;0.10;;
13764;SDS011;6953;48.810;9.204;2023-07-31T08:24:34;0.17;;;0.17;;
13764;SDS011;6953;48.810;9.204;2023-07-31T08:26:59;0.10;;;0.10;;
13764;SDS011;6953;48.810;9.204;2023-07-31T08:29:25;0.20;;;0.20;;
13764;SDS011;6953;48.810;9.204;2023-07-31T08:31:50;0.10;;;0.10;;
13764;SDS011;6953;48.810;9.204;2023-07-31T08:34:15;0.10;;;0.10;;
13764;SDS011;6953;48.810;9.204;2023-07-31T08:36:41;0.20;;;0.20;;
13764;SDS011;6953;48.810;9.204;2023-07-31T08:39:06;0.20;;;0.20;;
13764;SDS011;6953;48.810;9.204;2023-07-31T08:41:31;0.10;;;0.10;;
13764;SDS011;6953;48.810;9.204;2023-07-31T08:44:02;0.10;;;0.10;;
13764;SDS011;6953;48.810;9.204;2023-07-31T08:46:29;0.10;;;0.10;;
13764;SDS011;6953;48.810;9.204;2023-07-31T08:48:55;0.15;;;0.15;;
13764;SDS011;6953;48.810;9.204;2023-07-31T08:51:20;0.20;;;0.20;;
13764;SDS011;6953;48.810;9.204;2023-07-31T08:53:46;0.20;;;0.20;;
13764;SDS011;6953;48.810;9.204;2023-07-31T08:56:12;0.20;;;0.20;;
13764;SDS011;6953;48.810;9.204;2023-07-31T08:58:38;0.20;;;0.20;;
13764;SDS011;6953;48.810;9.204;2023-07-31T09:01:05;0.20;;;0.20;;
13764;SDS011;6953;48.810;9.204;2023-07-31T09:03:33;0.20;;;0.20;;
13764;SDS011;6953;48.810;9.204;2023-07-31T09:06:00;0.20;;;0.20;;
13764;SDS011;6953;48.810;9.204;2023-07-31T09:08:30;0.20;;;0.20;;
13764;SDS011;6953;48.810;9.204;2023-07-31T09:10:58;0.20;;;0.20;;
13764;SDS011;6953;48.810;9.204;2023-07-31T09:13:29;0.20;;;0.20;;
13764;SDS011;6953;48.810;9.204;2023-07-31T09:15:55;0.20;;;0.20;;
13764;SDS011;6953;48.810;9.204;2023-07-31T09:18:21;0.20;;;0.20;;
13764;SDS011;6953;48.810;9.204;2023-07-31T09:21:00;0.10;;;0.10;;
13764;SDS011;6953;48.810;9.204;2023-07-31T09:23:42;0.20;;;0.20;;
13764;SDS011;6953;48.810;9.204;2023-07-31T09:26:08;0.20;;;0.20;;
13764;SDS011;6953;48.810;9.204;2023-07-31T09:28:34;0.20;;;0.20;;
13764;SDS011;6953;48.810;9.204;2023-07-31T09:30:59;0.20;;;0.20;;
13764;SDS011;6953;48.810;9.204;2023-07-31T09:33:25;0.10;;;0.10;;
13764;SDS011;6953;48.810;9.204;2023-07-31T09:35:50;0.10;;;0.10;;
13764;SDS011;6953;48.810;9.204;2023-07-31T09:38:15;0.20;;;0.20;;
13764;SDS011;6953;48.810;9.204;2023-07-31T09:40:42;0.20;;;0.20;;
13764;SDS011;6953;48.810;9.204;2023-07-31T09:43:09;0.20;;;0.20;;
13764;SDS011;6953;48.810;9.204;2023-07-31T09:45:38;0.20;;;0.20;;
13764;SDS011;6953;48.810;9.204;2023-07-31T09:48:11;0.20;;;0.20;;
13764;SDS011;6953;48.810;9.204;2023-07-31T09:50:38;0.20;;;0.20;;
13764;SDS011;6953;48.810;9.204;2023-07-31T09:53:05;0.20;;;0.20;;
13764;SDS011;6953;48.810;9.204;2023-07-31T09:55:31;0.20;;;0.20;;
13764;SDS011;6953;48.810;9.204;2023-07-31T09:57:57;0.20;;;0.20;;
13764;SDS011;6953;48.810;9.204;2023-07-31T10:00:23;0.10;;;0.10;;
13764;SDS011;6953;48.810;9.204;2023-07-31T10:02:53;0.20;;;0.20;;
13764;SDS011;6953;48.810;9.204;2023-07-31T10:05:19;0.20;;;0.20;;
13764;SDS011;6953;48.810;9.204;2023-07-31T10:07:51;0.10;;;0.10;;
13764;SDS011;6953;48.810;9.204;2023-07-31T10:10:19;0.20;;;0.20;;
13764;SDS011;6953;48.810;9.204;2023-07-31T10:12:46;0.17;;;0.17;;
13764;SDS011;6953;48.810;9.204;2023-07-31T10:15:13;0.20;;;0.20;;
13764;SDS011;6953;48.810;9.204;2023-07-31T10:17:39;0.10;;;0.10;;
13764;SDS011;6953;48.810;9.204;2023-07-31T10:20:05;0.10;;;0.10;;
13764;SDS011;6953;48.810;9.204;2023-07-31T10:22:32;0.20;;;0.20;;
13764;SDS011;6953;48.810;9.204;2023-07-31T10:24:58;0.20;;;0.20;;
13764;SDS011;6953;48.810;9.204;2023-07-31T10:27:25;0.13;;;0.13;;
13764;SDS011;6953;48.810;9.204;2023-07-31T10:29:50;0.10;;;0.10;;
13764;SDS011;6953;48.810;9.204;2023-07-31T10:32:19;0.20;;;0.20;;
13764;SDS011;6953;48.810;9.204;2023-07-31T10:34:46;0.13;;;0.13;;
13764;SDS011;6953;48.810;9.204;2023-07-31T10:37:20;0.20;;;0.20;;
13764;SDS011;6953;48.810;9.204;2023-07-31T10:39:56;0.20;;;0.20;;
13764;SDS011;6953;48.810;9.204;2023-07-31T10:42:27;0.10;;;0.10;;
13764;SDS011;6953;48.810;9.204;2023-07-31T10:44:58;0.17;;;0.17;;
13764;SDS011;6953;48.810;9.204;2023-07-31T10:47:24;0.10;;;0.10;;
13764;SDS011;6953;48.810;9.204;2023-07-31T10:49:50;0.10;;;0.10;;
13764;SDS011;6953;48.810;9.204;2023-07-31T10:52:19;0.10;;;0.10;;
13764;SDS011;6953;48.810;9.204;2023-07-31T10:55:13;0.15;;;0.15;;
13764;SDS011;6953;48.810;9.204;2023-07-31T10:57:44;0.10;;;0.10;;
13764;SDS011;6953;48.810;9.204;2023-07-31T11:00:19;0.10;;;0.10;;
13764;SDS011;6953;48.810;9.204;2023-07-31T11:05:42;0.10;;;0.10;;
13764;SDS011;6953;48.810;9.204;2023-07-31T11:10:41;0.10;;;0.10;;
13764;SDS011;6953;48.810;9.204;2023-07-31T11:13:07;0.10;;;0.10;;
13764;SDS011;6953;48.810;9.204;2023-07-31T11:15:33;0.10;;;0.10;;
13764;SDS011;6953;48.810;9.204;2023-07-31T11:18:00;0.10;;;0.10;;
13764;SDS011;6953;48.810;9.204;2023-07-31T11:20:35;0.10;;;0.10;;
13764;SDS011;6953;48.810;9.204;2023-07-31T11:23:05;0.10;;;0.10;;
13764;SDS011;6953;48.810;9.204;2023-07-31T11:25:33;0.10;;;0.10;;
13764;SDS011;6953;48.810;9.204;2023-07-31T11:28:32;0.10;;;0.10;;
13764;SDS011;6953;48.810;9.204;2023-07-31T11:30:50;0.10;;;0.10;;
13764;SDS011;6953;48.810;9.204;2023-07-31T11:33:15;0.10;;;0.10;;
13764;SDS011;6953;48.810;9.204;2023-07-31T11:35:47;0.10;;;0.10;;
13764;SDS011;6953;48.810;9.204;2023-07-31T11:41:02;0.10;;;0.10;;
13764;SDS011;6953;48.810;9.204;2023-07-31T11:43:29;0.20;;;0.20;;
13764;SDS011;6953;48.810;9.204;2023-07-31T11:45:56;0.20;;;0.20;;
13764;SDS011;6953;48.810;9.204;2023-07-31T11:48:27;0.20;;;0.20;;
13764;SDS011;6953;48.810;9.204;2023-07-31T11:50:54;0.20;;;0.20;;
13764;SDS011;6953;48.810;9.204;2023-07-31T11:56:12;0.20;;;0.20;;
13764;SDS011;6953;48.810;9.204;2023-07-31T11:58:39;0.20;;;0.20;;
13764;SDS011;6953;48.810;9.204;2023-07-31T12:01:05;0.20;;;0.20;;
13764;SDS011;6953;48.810;9.204;2023-07-31T12:03:32;0.20;;;0.20;;
13764;SDS011;6953;48.810;9.204;2023-07-31T12:05:58;0.20;;;0.20;;
13764;SDS011;6953;48.810;9.204;2023-07-31T12:08:24;0.20;;;0.20;;
13764;SDS011;6953;48.810;9.204;2023-07-31T12:10:50;0.20;;;0.20;;
13764;SDS011;6953;48.810;9.204;2023-07-31T12:13:21;0.20;;;0.20;;
13764;SDS011;6953;48.810;9.204;2023-07-31T12:15:47;0.20;;;0.20;;
13764;SDS011;6953;48.810;9.204;2023-07-31T12:18:14;0.20;;;0.20;;
13764;SDS011;6953;48.810;9.204;2023-07-31T12:20:44;0.20;;;0.20;;
13764;SDS011;6953;48.810;9.204;2023-07-31T12:26:00;0.30;;;0.30;;
13764;SDS011;6953;48.810;9.204;2023-07-31T12:28:26;0.25;;;0.25;;
13764;SDS011;6953;48.810;9.204;2023-07-31T12:30:51;0.20;;;0.20;;
13764;SDS011;6953;48.810;9.204;2023-07-31T12:33:21;0.20;;;0.20;;
13764;SDS011;6953;48.810;9.204;2023-07-31T12:35:47;0.10;;;0.10;;
13764;SDS011;6953;48.810;9.204;2023-07-31T12:38:12;0.20;;;0.20;;
13764;SDS011;6953;48.810;9.204;2023-07-31T12:40:39;0.15;;;0.15;;
13764;SDS011;6953;48.810;9.204;2023-07-31T12:43:06;0.20;;;0.20;;
13764;SDS011;6953;48.810;9.204;2023-07-31T12:45:32;0.20;;;0.20;;
13764;SDS011;6953;48.810;9.204;2023-07-31T12:47:58;0.20;;;0.20;;
13764;SDS011;6953;48.810;9.204;2023-07-31T12:50:24;0.20;;;0.20;;
13764;SDS011;6953;48.810;9.204;2023-07-31T12:52:50;0.20;;;0.20;;
13764;SDS011;6953;48.810;9.204;2023-07-31T12:55:16;0.30;;;0.30;;
13764;SDS011;6953;48.810;9.204;2023-07-31T12:57:43;0.30;;;0.30;;
13764;SDS011;6953;48.810;9.204;2023-07-31T13:00:08;0.30;;;0.30;;
13764;SDS011;6953;48.810;9.204;2023-07-31T13:02:34;0.20;;;0.20;;
13764;SDS011;6953;48.810;9.204;2023-07-31T13:04:59;0.20;;;0.20;;
13764;SDS011;6953;48.810;9.204;2023-07-31T13:07:24;0.30;;;0.30;;
13764;SDS011;6953;48.810;9.204;2023-07-31T13:09:50;0.30;;;0.30;;
13764;SDS011;6953;48.810;9.204;2023-07-31T13:12:15;0.28;;;0.28;;
13764;SDS011;6953;48.810;9.204;2023-07-31T13:14:41;0.30;;;0.30;;
13764;SDS011;6953;48.810;9.204;2023-07-31T13:17:06;0.25;;;0.25;;
13764;SDS011;6953;48.810;9.204;2023-07-31T13:19:31;0.20;;;0.20;;
13764;SDS011;6953;48.810;9.204;2023-07-31T13:21:57;0.20;;;0.20;;
13764;SDS011;6953;48.810;9.204;2023-07-31T13:24:22;0.20;;;0.20;;
13764;SDS011;6953;48.810;9.204;2023-07-31T13:26:47;0.28;;;0.28;;
13764;SDS011;6953;48.810;9.204;2023-07-31T13:29:13;0.20;;;0.20;;
13764;SDS011;6953;48.810;9.204;2023-07-31T13:31:38;0.20;;;0.20;;
13764;SDS011;6953;48.810;9.204;2023-07-31T13:34:03;0.25;;;0.25;;
13764;SDS011;6953;48.810;9.204;2023-07-31T13:36:28;0.20;;;0.20;;
13764;SDS011;6953;48.810;9.204;2023-07-31T13:38:54;0.20;;;0.20;;
13764;SDS011;6953;48.810;9.204;2023-07-31T13:41:19;0.20;;;0.20;;
13764;SDS011;6953;48.810;9.204;2023-07-31T13:43:44;0.20;;;0.20;;
13764;SDS011;6953;48.810;9.204;2023-07-31T13:46:10;0.20;;;0.20;;
13764;SDS011;6953;48.810;9.204;2023-07-31T13:48:36;0.20;;;0.20;;
13764;SDS011;6953;48.810;9.204;2023-07-31T13:51:01;0.20;;;0.20;;
13764;SDS011;6953;48.810;9.204;2023-07-31T13:53:27;0.20;;;0.20;;
13764;SDS011;6953;48.810;9.204;2023-07-31T13:55:52;0.20;;;0.20;;
13764;SDS011;6953;48.810;9.204;2023-07-31T13:58:18;0.20;;;0.20;;
13764;SDS011;6953;48.810;9.204;2023-07-31T14:00:44;0.17;;;0.17;;
13764;SDS011;6953;48.810;9.204;2023-07-31T14:03:09;0.20;;;0.20;;
13764;SDS011;6953;48.810;9.204;2023-07-31T14:05:34;0.20;;;0.20;;
13764;SDS011;6953;48.810;9.204;2023-07-31T14:08:00;0.10;;;0.10;;
13764;SDS011;6953;48.810;9.204;2023-07-31T14:10:25;0.17;;;0.17;;
13764;SDS011;6953;48.810;9.204;2023-07-31T14:12:51;0.10;;;0.10;;
13764;SDS011;6953;48.810;9.204;2023-07-31T14:15:16;0.10;;;0.10;;
13764;SDS011;6953;48.810;9.204;2023-07-31T14:17:41;0.10;;;0.10;;
13764;SDS011;6953;48.810;9.204;2023-07-31T14:20:07;0.20;;;0.20;;
13764;SDS011;6953;48.810;9.204;2023-07-31T14:22:33;0.10;;;0.10;;
13764;SDS011;6953;48.810;9.204;2023-07-31T14:24:59;0.10;;;0.10;;
13764;SDS011;6953;48.810;9.204;2023-07-31T14:27:25;0.20;;;0.20;;
13764;SDS011;6953;48.810;9.204;2023-07-31T14:29:50;0.13;;;0.13;;
13764;SDS011;6953;48.810;9.204;2023-07-31T14:32:15;0.20;;;0.20;;
13764;SDS011;6953;48.810;9.204;2023-07-31T14:34:41;0.10;;;0.10;;
13764;SDS011;6953;48.810;9.204;2023-07-31T14:37:06;0.20;;;0.20;;
13764;SDS011;6953;48.810;9.204;2023-07-31T14:39:31;0.10;;;0.10;;
13764;SDS011;6953;48.810;9.204;2023-07-31T14:41:57;0.20;;;0.20;;
13764;SDS011;6953;48.810;9.204;2023-07-31T14:44:22;0.20;;;0.20;;
13764;SDS011;6953;48.810;9.204;2023-07-31T14:46:47;0.10;;;0.10;;
13764;SDS011;6953;48.810;9.204;2023-07-31T14:49:13;0.20;;;0.20;;
13764;SDS011;6953;48.810;9.204;2023-07-31T14:51:39;0.10;;;0.10;;
13764;SDS011;6953;48.810;9.204;2023-07-31T14:54:04;0.20;;;0.20;;
13764;SDS011;6953;48.810;9.204;2023-07-31T14:56:29;0.17;;;0.17;;
13764;SDS011;6953;48.810;9.204;2023-07-31T14:58:55;0.10;;;0.10;;
13764;SDS011;6953;48.810;9.204;2023-07-31T15:01:20;0.10;;;0.10;;
13764;SDS011;6953;48.810;9.204;2023-07-31T15:03:45;0.10;;;0.10;;
13764;SDS011;6953;48.810;9.204;2023-07-31T15:06:11;0.10;;;0.10;;
13764;SDS011;6953;48.810;9.204;2023-07-31T15:08:37;0.20;;;0.20;;
13764;SDS011;6953;48.810;9.204;2023-07-31T15:11:03;0.20;;;0.20;;